sensor_id;sensor_type;location;lat;lon;timestamp;temperature;humidity
75961;SHT30;64644;48.914;2.254;2023-05-29T00:00:11;21.55;50.96
75961;SHT30;64644;48.914;2.254;2023-05-29T00:02:38;21.53;50.89
75961;SHT30;64644;48.914;2.254;2023-05-29T00:05:04;21.49;51.02
75961;SHT30;64644;48.914;2.254;2023-05-29T00:07:31;21.46;51.08
75961;SHT30;64644;48.914;2.254;2023-05-29T00:09:58;21.48;51.01
75961;SHT30;64644;48.914;2.254;2023-05-29T00:12:23;21.45;51.03
75961;SHT30;64644;48.914;2.254;2023-05-29T00:14:49;21.44;51.09
75961;SHT30;64644;48.914;2.254;2023-05-29T00:17:15;21.38;51.14
75961;SHT30;64644;48.914;2.254;2023-05-29T00:19:42;21.35;51.03
75961;SHT30;64644;48.914;2.254;2023-05-29T00:22:07;21.27;51.03
75961;SHT30;64644;48.914;2.254;2023-05-29T00:24:33;21.24;51.30
75961;SHT30;64644;48.914;2.254;2023-05-29T00:26:58;21.21;51.17
75961;SHT30;64644;48.914;2.254;2023-05-29T00:29:23;21.15;51.39
75961;SHT30;64644;48.914;2.254;2023-05-29T00:31:49;21.12;51.51
75961;SHT30;64644;48.914;2.254;2023-05-29T00:34:14;21.11;51.56
75961;SHT30;64644;48.914;2.254;2023-05-29T00:36:40;21.11;51.45
75961;SHT30;64644;48.914;2.254;2023-05-29T00:39:05;21.07;51.53
75961;SHT30;64644;48.914;2.254;2023-05-29T00:41:30;21.06;51.60
75961;SHT30;64644;48.914;2.254;2023-05-29T00:43:56;21.00;51.70
75961;SHT30;64644;48.914;2.254;2023-05-29T00:46:21;20.99;51.71
75961;SHT30;64644;48.914;2.254;2023-05-29T00:48:47;20.97;51.73
75961;SHT30;64644;48.914;2.254;2023-05-29T00:51:13;20.94;51.78
75961;SHT30;64644;48.914;2.254;2023-05-29T00:53:40;20.93;51.75
75961;SHT30;64644;48.914;2.254;2023-05-29T00:56:07;20.89;51.81
75961;SHT30;64644;48.914;2.254;2023-05-29T00:58:34;20.82;51.79
75961;SHT30;64644;48.914;2.254;2023-05-29T01:01:00;20.83;51.94
75961;SHT30;64644;48.914;2.254;2023-05-29T01:03:25;20.80;51.85
75961;SHT30;64644;48.914;2.254;2023-05-29T01:05:51;20.76;51.91
75961;SHT30;64644;48.914;2.254;2023-05-29T01:08:17;20.73;52.10
75961;SHT30;64644;48.914;2.254;2023-05-29T01:10:43;20.73;52.01
75961;SHT30;64644;48.914;2.254;2023-05-29T01:13:18;20.69;52.02
75961;SHT30;64644;48.914;2.254;2023-05-29T01:15:58;20.69;52.03
75961;SHT30;64644;48.914;2.254;2023-05-29T01:18:46;20.66;52.09
75961;SHT30;64644;48.914;2.254;2023-05-29T01:21:36;20.62;52.27
75961;SHT30;64644;48.914;2.254;2023-05-29T01:24:37;20.58;52.07
75961;SHT30;64644;48.914;2.254;2023-05-29T01:27:05;20.58;52.17
75961;SHT30;64644;48.914;2.254;2023-05-29T01:29:34;20.58;52.06
75961;SHT30;64644;48.914;2.254;2023-05-29T01:32:00;20.55;52.17
75961;SHT30;64644;48.914;2.254;2023-05-29T01:34:27;20.52;52.21
75961;SHT30;64644;48.914;2.254;2023-05-29T01:36:53;20.52;52.35
75961;SHT30;64644;48.914;2.254;2023-05-29T01:39:19;20.49;52.37
75961;SHT30;64644;48.914;2.254;2023-05-29T01:41:46;20.49;52.43
75961;SHT30;64644;48.914;2.254;2023-05-29T01:44:12;20.52;52.45
75961;SHT30;64644;48.914;2.254;2023-05-29T01:46:39;20.48;52.49
75961;SHT30;64644;48.914;2.254;2023-05-29T01:49:05;20.44;52.49
75961;SHT30;64644;48.914;2.254;2023-05-29T01:51:31;20.41;52.69
75961;SHT30;64644;48.914;2.254;2023-05-29T01:53:59;20.38;52.60
75961;SHT30;64644;48.914;2.254;2023-05-29T01:56:26;20.37;52.74
75961;SHT30;64644;48.914;2.254;2023-05-29T01:58:54;20.34;52.87
75961;SHT30;64644;48.914;2.254;2023-05-29T02:01:21;20.31;52.87
75961;SHT30;64644;48.914;2.254;2023-05-29T02:03:46;20.28;52.89
75961;SHT30;64644;48.914;2.254;2023-05-29T02:06:11;20.28;53.01
75961;SHT30;64644;48.914;2.254;2023-05-29T02:08:37;20.24;53.07
75961;SHT30;64644;48.914;2.254;2023-05-29T02:11:02;20.25;53.15
75961;SHT30;64644;48.914;2.254;2023-05-29T02:13:27;20.24;53.12
75961;SHT30;64644;48.914;2.254;2023-05-29T02:15:53;20.20;53.25
75961;SHT30;64644;48.914;2.254;2023-05-29T02:18:18;20.17;53.28
75961;SHT30;64644;48.914;2.254;2023-05-29T02:20:44;20.14;53.37
75961;SHT30;64644;48.914;2.254;2023-05-29T02:23:10;20.13;53.36
75961;SHT30;64644;48.914;2.254;2023-05-29T02:25:35;20.11;53.43
75961;SHT30;64644;48.914;2.254;2023-05-29T02:28:01;20.06;53.33
75961;SHT30;64644;48.914;2.254;2023-05-29T02:30:27;20.06;53.50
75961;SHT30;64644;48.914;2.254;2023-05-29T02:32:53;20.07;53.48
75961;SHT30;64644;48.914;2.254;2023-05-29T02:35:18;20.03;53.55
75961;SHT30;64644;48.914;2.254;2023-05-29T02:37:46;20.00;53.18
75961;SHT30;64644;48.914;2.254;2023-05-29T02:40:11;19.97;53.57
75961;SHT30;64644;48.914;2.254;2023-05-29T02:42:36;19.96;53.81
75961;SHT30;64644;48.914;2.254;2023-05-29T02:45:02;19.90;53.81
75961;SHT30;64644;48.914;2.254;2023-05-29T02:47:27;19.92;53.91
75961;SHT30;64644;48.914;2.254;2023-05-29T02:49:53;19.90;53.86
75961;SHT30;64644;48.914;2.254;2023-05-29T02:52:18;19.87;54.07
75961;SHT30;64644;48.914;2.254;2023-05-29T02:54:43;19.77;54.17
75961;SHT30;64644;48.914;2.254;2023-05-29T02:57:09;19.77;54.40
75961;SHT30;64644;48.914;2.254;2023-05-29T02:59:34;19.75;54.35
75961;SHT30;64644;48.914;2.254;2023-05-29T03:02:00;19.66;54.50
75961;SHT30;64644;48.914;2.254;2023-05-29T03:04:26;19.65;54.64
75961;SHT30;64644;48.914;2.254;2023-05-29T03:06:52;19.63;54.66
75961;SHT30;64644;48.914;2.254;2023-05-29T03:09:18;19.61;54.64
75961;SHT30;64644;48.914;2.254;2023-05-29T03:11:43;19.62;54.93
75961;SHT30;64644;48.914;2.254;2023-05-29T03:14:10;19.57;54.84
75961;SHT30;64644;48.914;2.254;2023-05-29T03:16:35;19.55;55.02
75961;SHT30;64644;48.914;2.254;2023-05-29T03:19:01;19.52;54.93
75961;SHT30;64644;48.914;2.254;2023-05-29T03:21:26;19.49;55.07
75961;SHT30;64644;48.914;2.254;2023-05-29T03:23:51;19.45;55.00
75961;SHT30;64644;48.914;2.254;2023-05-29T03:26:17;19.42;55.17
75961;SHT30;64644;48.914;2.254;2023-05-29T03:28:42;19.38;55.45
75961;SHT30;64644;48.914;2.254;2023-05-29T03:31:07;19.36;55.52
75961;SHT30;64644;48.914;2.254;2023-05-29T03:33:35;19.31;55.52
75961;SHT30;64644;48.914;2.254;2023-05-29T03:36:01;19.30;55.63
75961;SHT30;64644;48.914;2.254;2023-05-29T03:38:26;19.24;55.61
75961;SHT30;64644;48.914;2.254;2023-05-29T03:40:51;19.21;55.43
75961;SHT30;64644;48.914;2.254;2023-05-29T03:43:17;19.21;55.85
75961;SHT30;64644;48.914;2.254;2023-05-29T03:45:42;19.18;55.84
75961;SHT30;64644;48.914;2.254;2023-05-29T03:48:07;19.18;56.04
75961;SHT30;64644;48.914;2.254;2023-05-29T03:50:33;19.18;55.83
75961;SHT30;64644;48.914;2.254;2023-05-29T03:52:58;19.14;56.20
75961;SHT30;64644;48.914;2.254;2023-05-29T03:55:26;19.14;56.23
75961;SHT30;64644;48.914;2.254;2023-05-29T03:57:52;19.11;56.16
75961;SHT30;64644;48.914;2.254;2023-05-29T04:00:17;19.10;56.18
75961;SHT30;64644;48.914;2.254;2023-05-29T04:02:43;19.10;56.27
75961;SHT30;64644;48.914;2.254;2023-05-29T04:05:08;19.08;56.32
75961;SHT30;64644;48.914;2.254;2023-05-29T04:07:37;19.06;56.23
75961;SHT30;64644;48.914;2.254;2023-05-29T04:10:04;19.03;56.35
75961;SHT30;64644;48.914;2.254;2023-05-29T04:12:30;19.04;56.38
75961;SHT30;64644;48.914;2.254;2023-05-29T04:14:55;19.00;56.45
75961;SHT30;64644;48.914;2.254;2023-05-29T04:17:20;19.00;56.40
75961;SHT30;64644;48.914;2.254;2023-05-29T04:19:46;18.97;56.40
75961;SHT30;64644;48.914;2.254;2023-05-29T04:22:11;18.97;56.64
75961;SHT30;64644;48.914;2.254;2023-05-29T04:24:37;18.97;56.88
75961;SHT30;64644;48.914;2.254;2023-05-29T04:27:02;18.97;56.83
75961;SHT30;64644;48.914;2.254;2023-05-29T04:29:31;18.96;56.90
75961;SHT30;64644;48.914;2.254;2023-05-29T04:31:57;18.95;57.03
75961;SHT30;64644;48.914;2.254;2023-05-29T04:34:23;18.96;57.06
75961;SHT30;64644;48.914;2.254;2023-05-29T04:36:48;18.95;57.08
75961;SHT30;64644;48.914;2.254;2023-05-29T04:39:13;18.96;57.08
75961;SHT30;64644;48.914;2.254;2023-05-29T04:41:40;18.96;57.10
75961;SHT30;64644;48.914;2.254;2023-05-29T04:44:06;18.93;57.13
75961;SHT30;64644;48.914;2.254;2023-05-29T04:46:31;18.95;57.29
75961;SHT30;64644;48.914;2.254;2023-05-29T04:48:56;18.93;57.01
75961;SHT30;64644;48.914;2.254;2023-05-29T04:51:22;18.92;57.17
75961;SHT30;64644;48.914;2.254;2023-05-29T04:53:49;18.90;57.22
75961;SHT30;64644;48.914;2.254;2023-05-29T04:56:17;18.89;57.36
75961;SHT30;64644;48.914;2.254;2023-05-29T04:58:43;18.87;57.36
75961;SHT30;64644;48.914;2.254;2023-05-29T05:01:09;18.89;57.45
75961;SHT30;64644;48.914;2.254;2023-05-29T05:03:42;18.90;57.54
75961;SHT30;64644;48.914;2.254;2023-05-29T05:06:07;18.93;57.56
75961;SHT30;64644;48.914;2.254;2023-05-29T05:08:33;18.95;57.30
75961;SHT30;64644;48.914;2.254;2023-05-29T05:11:00;18.92;57.26
75961;SHT30;64644;48.914;2.254;2023-05-29T05:13:25;18.90;57.26
75961;SHT30;64644;48.914;2.254;2023-05-29T05:15:51;18.87;57.30
75961;SHT30;64644;48.914;2.254;2023-05-29T05:18:16;18.86;57.20
75961;SHT30;64644;48.914;2.254;2023-05-29T05:20:42;18.86;57.43
75961;SHT30;64644;48.914;2.254;2023-05-29T05:23:07;18.89;57.54
75961;SHT30;64644;48.914;2.254;2023-05-29T05:25:33;18.89;57.64
75961;SHT30;64644;48.914;2.254;2023-05-29T05:28:00;18.95;57.60
75961;SHT30;64644;48.914;2.254;2023-05-29T05:30:25;18.93;57.44
75961;SHT30;64644;48.914;2.254;2023-05-29T05:32:51;18.92;57.66
75961;SHT30;64644;48.914;2.254;2023-05-29T05:35:16;18.92;57.56
75961;SHT30;64644;48.914;2.254;2023-05-29T05:37:41;18.99;57.69
75961;SHT30;64644;48.914;2.254;2023-05-29T05:40:07;18.99;57.50
75961;SHT30;64644;48.914;2.254;2023-05-29T05:42:33;18.97;57.64
75961;SHT30;64644;48.914;2.254;2023-05-29T05:44:59;19.02;57.53
75961;SHT30;64644;48.914;2.254;2023-05-29T05:47:24;19.02;57.41
75961;SHT30;64644;48.914;2.254;2023-05-29T05:49:50;18.99;57.59
75961;SHT30;64644;48.914;2.254;2023-05-29T05:52:17;19.02;57.47
75961;SHT30;64644;48.914;2.254;2023-05-29T05:54:43;19.04;57.55
75961;SHT30;64644;48.914;2.254;2023-05-29T05:57:08;19.06;57.24
75961;SHT30;64644;48.914;2.254;2023-05-29T05:59:34;19.07;57.44
75961;SHT30;64644;48.914;2.254;2023-05-29T06:01:59;19.03;57.38
75961;SHT30;64644;48.914;2.254;2023-05-29T06:04:24;19.04;57.36
75961;SHT30;64644;48.914;2.254;2023-05-29T06:06:50;19.04;57.34
75961;SHT30;64644;48.914;2.254;2023-05-29T06:09:15;19.06;57.27
75961;SHT30;64644;48.914;2.254;2023-05-29T06:11:40;19.06;57.50
75961;SHT30;64644;48.914;2.254;2023-05-29T06:14:06;19.08;57.55
75961;SHT30;64644;48.914;2.254;2023-05-29T06:16:31;19.13;57.45
75961;SHT30;64644;48.914;2.254;2023-05-29T06:18:57;19.14;57.47
75961;SHT30;64644;48.914;2.254;2023-05-29T06:21:22;19.17;57.36
75961;SHT30;64644;48.914;2.254;2023-05-29T06:23:48;19.20;57.55
75961;SHT30;64644;48.914;2.254;2023-05-29T06:26:14;19.24;57.26
75961;SHT30;64644;48.914;2.254;2023-05-29T06:28:41;19.24;57.07
75961;SHT30;64644;48.914;2.254;2023-05-29T06:31:06;19.23;56.99
75961;SHT30;64644;48.914;2.254;2023-05-29T06:33:32;19.24;57.20
75961;SHT30;64644;48.914;2.254;2023-05-29T06:35:57;19.27;57.41
75961;SHT30;64644;48.914;2.254;2023-05-29T06:38:22;19.32;57.04
75961;SHT30;64644;48.914;2.254;2023-05-29T06:40:48;19.31;56.94
75961;SHT30;64644;48.914;2.254;2023-05-29T06:43:13;19.30;57.03
75961;SHT30;64644;48.914;2.254;2023-05-29T06:45:39;19.31;57.13
75961;SHT30;64644;48.914;2.254;2023-05-29T06:48:04;19.36;57.13
75961;SHT30;64644;48.914;2.254;2023-05-29T06:50:30;19.39;57.31
75961;SHT30;64644;48.914;2.254;2023-05-29T06:52:56;19.47;57.18
75961;SHT30;64644;48.914;2.254;2023-05-29T06:55:21;19.48;57.13
75961;SHT30;64644;48.914;2.254;2023-05-29T06:57:46;19.52;57.19
75961;SHT30;64644;48.914;2.254;2023-05-29T07:00:12;19.59;57.09
75961;SHT30;64644;48.914;2.254;2023-05-29T07:02:38;19.68;56.77
75961;SHT30;64644;48.914;2.254;2023-05-29T07:05:03;19.82;56.48
75961;SHT30;64644;48.914;2.254;2023-05-29T07:07:29;19.86;56.64
75961;SHT30;64644;48.914;2.254;2023-05-29T07:09:54;19.89;56.14
75961;SHT30;64644;48.914;2.254;2023-05-29T07:12:21;19.89;56.34
75961;SHT30;64644;48.914;2.254;2023-05-29T07:14:47;19.93;56.01
75961;SHT30;64644;48.914;2.254;2023-05-29T07:17:13;19.90;55.91
75961;SHT30;64644;48.914;2.254;2023-05-29T07:19:39;19.92;55.92
75961;SHT30;64644;48.914;2.254;2023-05-29T07:22:05;19.92;56.03
75961;SHT30;64644;48.914;2.254;2023-05-29T07:24:30;19.92;55.96
75961;SHT30;64644;48.914;2.254;2023-05-29T07:26:56;19.89;56.09
75961;SHT30;64644;48.914;2.254;2023-05-29T07:29:21;19.97;56.08
75961;SHT30;64644;48.914;2.254;2023-05-29T07:31:49;20.03;56.29
75961;SHT30;64644;48.914;2.254;2023-05-29T07:34:14;20.10;55.70
75961;SHT30;64644;48.914;2.254;2023-05-29T07:37:02;20.17;55.72
75961;SHT30;64644;48.914;2.254;2023-05-29T07:39:29;20.24;56.01
75961;SHT30;64644;48.914;2.254;2023-05-29T07:41:54;20.28;55.72
75961;SHT30;64644;48.914;2.254;2023-05-29T07:44:20;20.31;55.49
75961;SHT30;64644;48.914;2.254;2023-05-29T07:46:45;20.32;55.47
75961;SHT30;64644;48.914;2.254;2023-05-29T07:49:11;20.34;55.66
75961;SHT30;64644;48.914;2.254;2023-05-29T07:51:36;20.37;55.65
75961;SHT30;64644;48.914;2.254;2023-05-29T07:54:02;20.38;55.14
75961;SHT30;64644;48.914;2.254;2023-05-29T07:56:27;20.42;55.23
75961;SHT30;64644;48.914;2.254;2023-05-29T07:58:53;20.41;55.43
75961;SHT30;64644;48.914;2.254;2023-05-29T08:01:20;20.44;55.51
75961;SHT30;64644;48.914;2.254;2023-05-29T08:03:46;20.49;55.52
75961;SHT30;64644;48.914;2.254;2023-05-29T08:06:12;20.56;55.10
75961;SHT30;64644;48.914;2.254;2023-05-29T08:08:37;20.55;55.08
75961;SHT30;64644;48.914;2.254;2023-05-29T08:11:03;20.61;55.22
75961;SHT30;64644;48.914;2.254;2023-05-29T08:13:29;20.65;55.28
75961;SHT30;64644;48.914;2.254;2023-05-29T08:15:55;20.69;54.66
75961;SHT30;64644;48.914;2.254;2023-05-29T08:18:25;20.75;54.77
75961;SHT30;64644;48.914;2.254;2023-05-29T08:20:50;20.82;54.79
75961;SHT30;64644;48.914;2.254;2023-05-29T08:23:16;20.86;54.63
75961;SHT30;64644;48.914;2.254;2023-05-29T08:25:41;20.91;54.68
75961;SHT30;64644;48.914;2.254;2023-05-29T08:28:07;20.99;54.34
75961;SHT30;64644;48.914;2.254;2023-05-29T08:30:32;21.01;54.15
75961;SHT30;64644;48.914;2.254;2023-05-29T08:32:57;21.04;54.31
75961;SHT30;64644;48.914;2.254;2023-05-29T08:35:23;21.11;54.46
75961;SHT30;64644;48.914;2.254;2023-05-29T08:37:48;21.21;54.42
75961;SHT30;64644;48.914;2.254;2023-05-29T08:40:13;21.28;54.22
75961;SHT30;64644;48.914;2.254;2023-05-29T08:42:47;21.34;53.89
75961;SHT30;64644;48.914;2.254;2023-05-29T08:45:14;21.42;54.11
75961;SHT30;64644;48.914;2.254;2023-05-29T08:47:40;21.49;53.68
75961;SHT30;64644;48.914;2.254;2023-05-29T08:50:07;21.55;53.53
75961;SHT30;64644;48.914;2.254;2023-05-29T08:52:34;21.62;53.32
75961;SHT30;64644;48.914;2.254;2023-05-29T08:55:04;21.66;53.36
75961;SHT30;64644;48.914;2.254;2023-05-29T08:57:30;21.67;53.39
75961;SHT30;64644;48.914;2.254;2023-05-29T08:59:56;21.73;53.54
75961;SHT30;64644;48.914;2.254;2023-05-29T09:02:22;21.83;53.32
75961;SHT30;64644;48.914;2.254;2023-05-29T09:04:47;21.85;52.98
75961;SHT30;64644;48.914;2.254;2023-05-29T09:07:19;21.89;52.80
75961;SHT30;64644;48.914;2.254;2023-05-29T09:09:46;21.93;52.67
75961;SHT30;64644;48.914;2.254;2023-05-29T09:12:11;21.98;52.78
75961;SHT30;64644;48.914;2.254;2023-05-29T09:14:42;22.08;53.15
75961;SHT30;64644;48.914;2.254;2023-05-29T09:17:10;22.21;52.51
75961;SHT30;64644;48.914;2.254;2023-05-29T09:19:36;22.28;52.27
75961;SHT30;64644;48.914;2.254;2023-05-29T09:22:07;22.38;52.68
75961;SHT30;64644;48.914;2.254;2023-05-29T09:24:34;22.47;52.23
75961;SHT30;64644;48.914;2.254;2023-05-29T09:27:02;22.58;52.37
75961;SHT30;64644;48.914;2.254;2023-05-29T09:29:32;22.68;52.18
75961;SHT30;64644;48.914;2.254;2023-05-29T09:31:58;22.80;51.99
75961;SHT30;64644;48.914;2.254;2023-05-29T09:34:24;22.87;51.75
75961;SHT30;64644;48.914;2.254;2023-05-29T09:36:52;22.94;51.42
75961;SHT30;64644;48.914;2.254;2023-05-29T09:39:18;23.02;51.85
75961;SHT30;64644;48.914;2.254;2023-05-29T09:41:44;23.08;51.26
75961;SHT30;64644;48.914;2.254;2023-05-29T09:44:12;23.13;51.07
75961;SHT30;64644;48.914;2.254;2023-05-29T09:46:38;23.21;50.84
75961;SHT30;64644;48.914;2.254;2023-05-29T09:49:10;23.27;50.70
75961;SHT30;64644;48.914;2.254;2023-05-29T09:51:36;23.34;50.75
75961;SHT30;64644;48.914;2.254;2023-05-29T09:54:16;23.42;50.38
75961;SHT30;64644;48.914;2.254;2023-05-29T09:56:42;23.49;50.63
75961;SHT30;64644;48.914;2.254;2023-05-29T09:59:13;23.56;50.13
75961;SHT30;64644;48.914;2.254;2023-05-29T10:01:43;23.61;50.12
75961;SHT30;64644;48.914;2.254;2023-05-29T10:04:09;23.70;50.38
75961;SHT30;64644;48.914;2.254;2023-05-29T10:06:41;23.82;50.43
75961;SHT30;64644;48.914;2.254;2023-05-29T10:09:09;23.93;50.05
75961;SHT30;64644;48.914;2.254;2023-05-29T10:11:37;24.00;50.06
75961;SHT30;64644;48.914;2.254;2023-05-29T10:14:04;24.09;49.53
75961;SHT30;64644;48.914;2.254;2023-05-29T10:16:32;24.16;49.58
75961;SHT30;64644;48.914;2.254;2023-05-29T10:19:05;24.25;49.26
75961;SHT30;64644;48.914;2.254;2023-05-29T10:21:36;24.34;49.53
75961;SHT30;64644;48.914;2.254;2023-05-29T10:24:05;24.38;49.00
75961;SHT30;64644;48.914;2.254;2023-05-29T10:26:34;24.42;48.69
75961;SHT30;64644;48.914;2.254;2023-05-29T10:29:39;24.52;49.04
75961;SHT30;64644;48.914;2.254;2023-05-29T10:32:32;24.63;48.79
75961;SHT30;64644;48.914;2.254;2023-05-29T10:35:22;24.73;49.05
75961;SHT30;64644;48.914;2.254;2023-05-29T10:40:33;24.79;48.41
75961;SHT30;64644;48.914;2.254;2023-05-29T10:42:59;24.83;48.00
75961;SHT30;64644;48.914;2.254;2023-05-29T10:50:55;25.06;47.90
75961;SHT30;64644;48.914;2.254;2023-05-29T10:53:31;25.20;47.84
75961;SHT30;64644;48.914;2.254;2023-05-29T10:55:59;25.27;47.85
75961;SHT30;64644;48.914;2.254;2023-05-29T10:58:25;25.34;47.61
75961;SHT30;64644;48.914;2.254;2023-05-29T11:00:52;25.39;47.81
75961;SHT30;64644;48.914;2.254;2023-05-29T11:03:32;25.44;47.38
75961;SHT30;64644;48.914;2.254;2023-05-29T11:06:22;25.46;47.23
75961;SHT30;64644;48.914;2.254;2023-05-29T11:08:58;25.49;47.42
75961;SHT30;64644;48.914;2.254;2023-05-29T11:11:32;25.48;46.90
75961;SHT30;64644;48.914;2.254;2023-05-29T11:14:02;25.52;47.17
75961;SHT30;64644;48.914;2.254;2023-05-29T11:16:36;25.55;47.18
75961;SHT30;64644;48.914;2.254;2023-05-29T11:19:06;25.58;47.27
75961;SHT30;64644;48.914;2.254;2023-05-29T11:21:57;25.66;47.34
75961;SHT30;64644;48.914;2.254;2023-05-29T11:24:28;25.72;47.08
75961;SHT30;64644;48.914;2.254;2023-05-29T11:26:56;25.83;47.04
75961;SHT30;64644;48.914;2.254;2023-05-29T11:29:23;25.89;46.52
75961;SHT30;64644;48.914;2.254;2023-05-29T11:31:49;25.94;46.50
75961;SHT30;64644;48.914;2.254;2023-05-29T11:34:21;26.00;46.34
75961;SHT30;64644;48.914;2.254;2023-05-29T11:36:47;26.04;46.38
75961;SHT30;64644;48.914;2.254;2023-05-29T11:39:14;26.13;46.58
75961;SHT30;64644;48.914;2.254;2023-05-29T11:41:39;26.24;46.31
75961;SHT30;64644;48.914;2.254;2023-05-29T11:44:05;26.22;45.46
75961;SHT30;64644;48.914;2.254;2023-05-29T11:46:31;26.20;45.80
75961;SHT30;64644;48.914;2.254;2023-05-29T11:48:58;26.25;45.74
75961;SHT30;64644;48.914;2.254;2023-05-29T11:51:24;26.27;45.68
75961;SHT30;64644;48.914;2.254;2023-05-29T11:53:50;26.35;45.57
75961;SHT30;64644;48.914;2.254;2023-05-29T11:56:18;26.39;45.48
75961;SHT30;64644;48.914;2.254;2023-05-29T11:58:44;26.39;45.90
75961;SHT30;64644;48.914;2.254;2023-05-29T12:01:10;26.47;45.52
75961;SHT30;64644;48.914;2.254;2023-05-29T12:03:40;26.59;46.11
75961;SHT30;64644;48.914;2.254;2023-05-29T12:06:06;26.76;45.19
75961;SHT30;64644;48.914;2.254;2023-05-29T12:08:33;26.92;45.15
75961;SHT30;64644;48.914;2.254;2023-05-29T12:10:58;27.06;44.34
75961;SHT30;64644;48.914;2.254;2023-05-29T12:13:23;27.20;44.35
75961;SHT30;64644;48.914;2.254;2023-05-29T12:15:53;27.33;44.63
75961;SHT30;64644;48.914;2.254;2023-05-29T12:18:19;27.42;44.24
75961;SHT30;64644;48.914;2.254;2023-05-29T12:20:44;27.51;44.39
75961;SHT30;64644;48.914;2.254;2023-05-29T12:23:10;27.62;43.61
75961;SHT30;64644;48.914;2.254;2023-05-29T12:25:37;27.65;43.60
75961;SHT30;64644;48.914;2.254;2023-05-29T12:28:04;27.69;43.39
75961;SHT30;64644;48.914;2.254;2023-05-29T12:30:29;27.76;43.61
75961;SHT30;64644;48.914;2.254;2023-05-29T12:32:56;27.88;42.37
75961;SHT30;64644;48.914;2.254;2023-05-29T12:35:23;27.93;42.32
75961;SHT30;64644;48.914;2.254;2023-05-29T12:37:53;27.96;42.01
75961;SHT30;64644;48.914;2.254;2023-05-29T12:40:23;28.04;42.32
75961;SHT30;64644;48.914;2.254;2023-05-29T12:42:53;28.14;41.52
75961;SHT30;64644;48.914;2.254;2023-05-29T12:45:19;28.24;41.78
75961;SHT30;64644;48.914;2.254;2023-05-29T12:47:55;28.33;41.65
75961;SHT30;64644;48.914;2.254;2023-05-29T12:53:11;28.49;41.13
75961;SHT30;64644;48.914;2.254;2023-05-29T12:55:41;28.49;42.14
75961;SHT30;64644;48.914;2.254;2023-05-29T12:58:09;28.59;42.20
75961;SHT30;64644;48.914;2.254;2023-05-29T13:00:36;28.69;41.21
75961;SHT30;64644;48.914;2.254;2023-05-29T13:03:02;28.76;41.00
75961;SHT30;64644;48.914;2.254;2023-05-29T13:05:28;28.78;40.49
75961;SHT30;64644;48.914;2.254;2023-05-29T13:07:56;28.80;40.80
75961;SHT30;64644;48.914;2.254;2023-05-29T13:10:22;28.93;41.11
75961;SHT30;64644;48.914;2.254;2023-05-29T13:12:48;28.99;40.97
75961;SHT30;64644;48.914;2.254;2023-05-29T13:15:19;28.99;40.26
75961;SHT30;64644;48.914;2.254;2023-05-29T13:17:44;28.96;40.37
75961;SHT30;64644;48.914;2.254;2023-05-29T13:20:11;28.89;40.23
75961;SHT30;64644;48.914;2.254;2023-05-29T13:22:38;28.90;40.56
75961;SHT30;64644;48.914;2.254;2023-05-29T13:25:04;28.90;40.49
75961;SHT30;64644;48.914;2.254;2023-05-29T13:27:32;28.99;40.92
75961;SHT30;64644;48.914;2.254;2023-05-29T13:29:57;29.07;40.57
75961;SHT30;64644;48.914;2.254;2023-05-29T13:32:23;29.13;41.20
75961;SHT30;64644;48.914;2.254;2023-05-29T13:34:48;29.23;40.66
75961;SHT30;64644;48.914;2.254;2023-05-29T13:37:13;29.18;39.86
75961;SHT30;64644;48.914;2.254;2023-05-29T13:39:39;29.18;40.50
75961;SHT30;64644;48.914;2.254;2023-05-29T13:42:04;29.20;40.12
75961;SHT30;64644;48.914;2.254;2023-05-29T13:44:32;29.25;40.72
75961;SHT30;64644;48.914;2.254;2023-05-29T13:46:57;29.35;40.37
75961;SHT30;64644;48.914;2.254;2023-05-29T13:49:22;29.37;40.33
75961;SHT30;64644;48.914;2.254;2023-05-29T13:51:48;29.34;39.71
75961;SHT30;64644;48.914;2.254;2023-05-29T13:54:15;29.27;39.62
75961;SHT30;64644;48.914;2.254;2023-05-29T13:56:42;29.32;40.33
75961;SHT30;64644;48.914;2.254;2023-05-29T13:59:07;29.35;40.85
75961;SHT30;64644;48.914;2.254;2023-05-29T14:01:33;29.37;41.26
75961;SHT30;64644;48.914;2.254;2023-05-29T14:03:58;29.42;39.84
75961;SHT30;64644;48.914;2.254;2023-05-29T14:06:24;29.37;40.31
75961;SHT30;64644;48.914;2.254;2023-05-29T14:08:49;29.39;40.00
75961;SHT30;64644;48.914;2.254;2023-05-29T14:11:15;29.35;39.96
75961;SHT30;64644;48.914;2.254;2023-05-29T14:13:40;29.34;39.72
75961;SHT30;64644;48.914;2.254;2023-05-29T14:16:06;29.32;40.13
75961;SHT30;64644;48.914;2.254;2023-05-29T14:18:31;29.32;39.88
75961;SHT30;64644;48.914;2.254;2023-05-29T14:20:56;29.28;40.72
75961;SHT30;64644;48.914;2.254;2023-05-29T14:23:22;29.23;40.11
75961;SHT30;64644;48.914;2.254;2023-05-29T14:25:47;29.21;40.25
75961;SHT30;64644;48.914;2.254;2023-05-29T14:28:12;29.13;39.77
75961;SHT30;64644;48.914;2.254;2023-05-29T14:30:38;29.04;40.32
75961;SHT30;64644;48.914;2.254;2023-05-29T14:33:03;28.97;40.78
75961;SHT30;64644;48.914;2.254;2023-05-29T14:35:29;28.89;40.80
75961;SHT30;64644;48.914;2.254;2023-05-29T14:37:55;28.87;40.61
75961;SHT30;64644;48.914;2.254;2023-05-29T14:40:21;28.84;41.40
75961;SHT30;64644;48.914;2.254;2023-05-29T14:42:46;28.79;41.52
75961;SHT30;64644;48.914;2.254;2023-05-29T14:45:11;28.75;41.37
75961;SHT30;64644;48.914;2.254;2023-05-29T14:47:36;28.70;40.76
75961;SHT30;64644;48.914;2.254;2023-05-29T14:50:02;28.65;41.48
75961;SHT30;64644;48.914;2.254;2023-05-29T14:52:27;28.59;41.47
75961;SHT30;64644;48.914;2.254;2023-05-29T14:54:53;28.45;40.64
75961;SHT30;64644;48.914;2.254;2023-05-29T14:57:18;28.37;41.20
75961;SHT30;64644;48.914;2.254;2023-05-29T14:59:44;28.27;41.00
75961;SHT30;64644;48.914;2.254;2023-05-29T15:02:09;28.14;41.55
75961;SHT30;64644;48.914;2.254;2023-05-29T15:04:35;28.03;42.63
75961;SHT30;64644;48.914;2.254;2023-05-29T15:07:00;27.96;42.75
75961;SHT30;64644;48.914;2.254;2023-05-29T15:09:26;27.85;42.58
75961;SHT30;64644;48.914;2.254;2023-05-29T15:11:51;27.69;42.21
75961;SHT30;64644;48.914;2.254;2023-05-29T15:14:16;27.58;41.99
75961;SHT30;64644;48.914;2.254;2023-05-29T15:16:42;27.54;42.80
75961;SHT30;64644;48.914;2.254;2023-05-29T15:19:08;27.42;42.22
75961;SHT30;64644;48.914;2.254;2023-05-29T15:21:34;27.33;42.18
75961;SHT30;64644;48.914;2.254;2023-05-29T15:23:59;27.23;42.17
75961;SHT30;64644;48.914;2.254;2023-05-29T15:26:25;27.11;43.37
75961;SHT30;64644;48.914;2.254;2023-05-29T15:28:51;27.08;43.35
75961;SHT30;64644;48.914;2.254;2023-05-29T15:31:17;27.04;43.52
75961;SHT30;64644;48.914;2.254;2023-05-29T15:33:42;27.01;43.41
75961;SHT30;64644;48.914;2.254;2023-05-29T15:36:08;26.96;43.13
75961;SHT30;64644;48.914;2.254;2023-05-29T15:38:34;26.90;43.15